PWSweather.com
Personal Weather Stations
Station Observations
LEUVEN
Sluispark, LeuvenBE 3000

SluisparkLeuvenBE 3000

Lat: 50.881, Lon: 4.699

Elevation: 40

Station Type: Davis VUE

Latest ConditionsUpdated 6:23:48 AM GMT+01:01 Thursday, Jun 27, 2019
Currently Today's Max Today's Min Today's Average
Temperature 60.6°F15.9°C 66.4°F19.1°C 59.7°F15.4°C 62.0°F16.7°C
Dew Point 55.4°F13.0°C 60.1°F15.6°C 55.4°F13.0°C 57.2°F14.0°C
Winds 0.9 mph SE1.4 kmh SE 4.0 mph -6.4 kmh - - 2.1 mph 3.4 kmh
Wind Gusts 4.9 mph7.9 kmh 11.0 mph17.7 kmh - -
Humidity 83% 87% 80% 84%
Pressure 30.38 in1028.8 mb 30.39 in1029.1 mb 30.35 in1027.8 mb -
Hour Temp Dew Point Humidity Winds Wind Gusts Pressure Precip Precip Rate Daily Precip Total
06:23 AM 60.6°F15.9°C 55.4°F13.0°C 83% 0.9 mph SE1.4 kmh SE 4.9 mph7.9 kmh 30.38 in1028.8 mb 0.00 in0.0 mm 0.00 in0.0 mm 0.00 in0.0 mm
06:21 AM 60.6°F15.9°C 55.8°F13.2°C 84% 0.9 mph ESE1.4 kmh ESE 2.9 mph4.7 kmh 30.38 in1028.8 mb 0.00 in0.0 mm 0.00 in0.0 mm 0.00 in0.0 mm
06:19 AM 60.6°F15.9°C 55.4°F13.0°C 83% 0.9 mph E1.4 kmh E 6.0 mph9.7 kmh 30.38 in1028.8 mb 0.00 in0.0 mm 0.00 in0.0 mm 0.00 in0.0 mm
06:17 AM 60.6°F15.9°C 55.8°F13.2°C 84% 0.9 mph E1.4 kmh E 7.0 mph11.3 kmh 30.38 in1028.8 mb 0.00 in0.0 mm 0.00 in0.0 mm 0.00 in0.0 mm
06:15 AM 60.4°F15.8°C 55.6°F13.1°C 84% 2.0 mph SE3.2 kmh SE 7.0 mph11.3 kmh 30.38 in1028.8 mb 0.00 in0.0 mm 0.00 in0.0 mm 0.00 in0.0 mm
06:13 AM 60.4°F15.8°C 55.6°F13.1°C 84% 2.0 mph ESE3.2 kmh ESE 4.0 mph6.4 kmh 30.38 in1028.8 mb 0.00 in0.0 mm 0.00 in0.0 mm 0.00 in0.0 mm
06:11 AM 60.4°F15.8°C 55.6°F13.1°C 84% 2.0 mph E3.2 kmh E 4.9 mph7.9 kmh 30.38 in1028.8 mb 0.00 in0.0 mm 0.00 in0.0 mm 0.00 in0.0 mm
06:09 AM 60.4°F15.8°C 55.6°F13.1°C 84% 2.0 mph E3.2 kmh E 4.9 mph7.9 kmh 30.38 in1028.8 mb 0.00 in0.0 mm 0.00 in0.0 mm 0.00 in0.0 mm
06:07 AM 60.3°F15.7°C 55.4°F13.0°C 84% 2.9 mph ESE4.7 kmh ESE 6.9 mph11.1 kmh 30.38 in1028.8 mb 0.00 in0.0 mm 0.00 in0.0 mm 0.00 in0.0 mm
06:05 AM 60.3°F15.7°C 55.8°F13.2°C 85% 2.9 mph SE4.7 kmh SE 6.9 mph11.1 kmh 30.38 in1028.8 mb 0.00 in0.0 mm 0.00 in0.0 mm 0.00 in0.0 mm
06:03 AM 60.3°F15.7°C 55.4°F13.0°C 84% 2.9 mph E4.7 kmh E 6.0 mph9.7 kmh 30.38 in1028.8 mb 0.00 in0.0 mm 0.00 in0.0 mm 0.00 in0.0 mm
06:01 AM 60.3°F15.7°C 55.4°F13.0°C 84% 2.9 mph ESE4.7 kmh ESE 8.9 mph14.3 kmh 30.38 in1028.8 mb 0.00 in0.0 mm 0.00 in0.0 mm 0.00 in0.0 mm
05:59 AM 60.3°F15.7°C 55.4°F13.0°C 84% 2.0 mph NE3.2 kmh NE 9.0 mph14.5 kmh 30.38 in1028.8 mb 0.00 in0.0 mm 0.00 in0.0 mm 0.00 in0.0 mm
05:57 AM 60.3°F15.7°C 55.4°F13.0°C 84% 2.0 mph E3.2 kmh E 8.1 mph13.0 kmh 30.38 in1028.8 mb 0.00 in0.0 mm 0.00 in0.0 mm 0.00 in0.0 mm
05:55 AM 60.3°F15.7°C 55.4°F13.0°C 84% 2.0 mph ESE3.2 kmh ESE 6.0 mph9.7 kmh 30.38 in1028.8 mb 0.00 in0.0 mm 0.00 in0.0 mm 0.00 in0.0 mm
05:53 AM 60.3°F15.7°C 55.8°F13.2°C 85% 2.0 mph ENE3.2 kmh ENE 4.0 mph6.4 kmh 30.39 in1029.1 mb 0.00 in0.0 mm 0.00 in0.0 mm 0.00 in0.0 mm
05:51 AM 60.3°F15.7°C 55.8°F13.2°C 85% 2.0 mph SE3.2 kmh SE 8.1 mph13.0 kmh 30.38 in1028.8 mb 0.00 in0.0 mm 0.00 in0.0 mm 0.00 in0.0 mm
05:49 AM 60.3°F15.7°C 55.8°F13.2°C 85% 2.0 mph SE3.2 kmh SE 6.0 mph9.7 kmh 30.38 in1028.8 mb 0.00 in0.0 mm 0.00 in0.0 mm 0.00 in0.0 mm
05:47 AM 60.3°F15.7°C 55.8°F13.2°C 85% 2.0 mph NE3.2 kmh NE 6.0 mph9.7 kmh 30.38 in1028.8 mb 0.00 in0.0 mm 0.00 in0.0 mm 0.00 in0.0 mm
05:45 AM 60.3°F15.7°C 55.8°F13.2°C 85% 2.0 mph E3.2 kmh E 4.9 mph7.9 kmh 30.38 in1028.8 mb 0.00 in0.0 mm 0.00 in0.0 mm 0.00 in0.0 mm
05:43 AM 60.3°F15.7°C 56.1°F13.4°C 86% 0.9 mph ESE1.4 kmh ESE 7.0 mph11.3 kmh 30.38 in1028.8 mb 0.00 in0.0 mm 0.00 in0.0 mm 0.00 in0.0 mm
05:41 AM 60.1°F15.6°C 55.6°F13.1°C 85% 2.0 mph ESE3.2 kmh ESE 7.0 mph11.3 kmh 30.38 in1028.8 mb 0.00 in0.0 mm 0.00 in0.0 mm 0.00 in0.0 mm
05:39 AM 60.1°F15.6°C 55.6°F13.1°C 85% 2.0 mph E3.2 kmh E 6.0 mph9.7 kmh 30.38 in1028.8 mb 0.00 in0.0 mm 0.00 in0.0 mm 0.00 in0.0 mm
05:37 AM 60.1°F15.6°C 55.9°F13.3°C 86% 2.0 mph ENE3.2 kmh ENE 6.0 mph9.7 kmh 30.38 in1028.8 mb 0.00 in0.0 mm 0.00 in0.0 mm 0.00 in0.0 mm
05:35 AM 60.1°F15.6°C 55.9°F13.3°C 86% 2.0 mph E3.2 kmh E 2.9 mph4.7 kmh 30.38 in1028.8 mb 0.00 in0.0 mm 0.00 in0.0 mm 0.00 in0.0 mm
05:33 AM 60.1°F15.6°C 55.9°F13.3°C 86% 2.9 mph E4.7 kmh E 6.9 mph11.1 kmh 30.38 in1028.8 mb 0.00 in0.0 mm 0.00 in0.0 mm 0.00 in0.0 mm
05:31 AM 60.1°F15.6°C 55.9°F13.3°C 86% 2.0 mph E3.2 kmh E 6.0 mph9.7 kmh 30.38 in1028.8 mb 0.00 in0.0 mm 0.00 in0.0 mm 0.00 in0.0 mm
05:29 AM 60.1°F15.6°C 55.9°F13.3°C 86% 2.9 mph E4.7 kmh E 6.9 mph11.1 kmh 30.38 in1028.8 mb 0.00 in0.0 mm 0.00 in0.0 mm 0.00 in0.0 mm
05:27 AM 60.1°F15.6°C 55.6°F13.1°C 85% 2.0 mph NE3.2 kmh NE 11.0 mph17.7 kmh 30.39 in1029.1 mb 0.00 in0.0 mm 0.00 in0.0 mm 0.00 in0.0 mm
05:25 AM 60.1°F15.6°C 55.9°F13.3°C 86% 2.0 mph NE3.2 kmh NE 11.0 mph17.7 kmh 30.38 in1028.8 mb 0.00 in0.0 mm 0.00 in0.0 mm 0.00 in0.0 mm
05:23 AM 60.1°F15.6°C 55.9°F13.3°C 86% 2.0 mph NE3.2 kmh NE 4.9 mph7.9 kmh 30.38 in1028.8 mb 0.00 in0.0 mm 0.00 in0.0 mm 0.00 in0.0 mm
05:21 AM 59.9°F15.5°C 55.8°F13.2°C 86% 2.0 mph E3.2 kmh E 4.9 mph7.9 kmh 30.37 in1028.4 mb 0.00 in0.0 mm 0.00 in0.0 mm 0.00 in0.0 mm
05:19 AM 59.9°F15.5°C 55.8°F13.2°C 86% 2.0 mph ESE3.2 kmh ESE 6.0 mph9.7 kmh 30.38 in1028.8 mb 0.00 in0.0 mm 0.00 in0.0 mm 0.00 in0.0 mm
05:17 AM 59.9°F15.5°C 55.9°F13.3°C 87% 2.0 mph ENE3.2 kmh ENE 6.0 mph9.7 kmh 30.37 in1028.4 mb 0.00 in0.0 mm 0.00 in0.0 mm 0.00 in0.0 mm
05:15 AM 59.7°F15.4°C 55.8°F13.2°C 87% 2.0 mph SE3.2 kmh SE 6.9 mph11.1 kmh 30.37 in1028.4 mb 0.00 in0.0 mm 0.00 in0.0 mm 0.00 in0.0 mm
05:13 AM 59.7°F15.4°C 55.8°F13.2°C 87% 2.0 mph E3.2 kmh E 6.0 mph9.7 kmh 30.37 in1028.4 mb 0.00 in0.0 mm 0.00 in0.0 mm 0.00 in0.0 mm
05:11 AM 59.7°F15.4°C 55.8°F13.2°C 87% 2.0 mph NE3.2 kmh NE 6.0 mph9.7 kmh 30.38 in1028.8 mb 0.00 in0.0 mm 0.00 in0.0 mm 0.00 in0.0 mm
05:09 AM 59.7°F15.4°C 55.8°F13.2°C 87% 2.0 mph WSW3.2 kmh WSW 6.0 mph9.7 kmh 30.38 in1028.8 mb 0.00 in0.0 mm 0.00 in0.0 mm 0.00 in0.0 mm
05:07 AM 59.7°F15.4°C 55.8°F13.2°C 87% 2.0 mph N3.2 kmh N 8.1 mph13.0 kmh 30.37 in1028.4 mb 0.00 in0.0 mm 0.00 in0.0 mm 0.00 in0.0 mm
05:05 AM 59.9°F15.5°C 55.9°F13.3°C 87% 2.0 mph E3.2 kmh E 6.0 mph9.7 kmh 30.38 in1028.8 mb 0.00 in0.0 mm 0.00 in0.0 mm 0.00 in0.0 mm
05:03 AM 59.9°F15.5°C 55.9°F13.3°C 87% 2.0 mph ENE3.2 kmh ENE 6.0 mph9.7 kmh 30.38 in1028.8 mb 0.00 in0.0 mm 0.00 in0.0 mm 0.00 in0.0 mm
05:01 AM 59.9°F15.5°C 55.9°F13.3°C 87% 2.0 mph SE3.2 kmh SE 4.9 mph7.9 kmh 30.37 in1028.4 mb 0.00 in0.0 mm 0.00 in0.0 mm 0.00 in0.0 mm
04:59 AM 59.9°F15.5°C 55.9°F13.3°C 87% 2.0 mph ESE3.2 kmh ESE 6.9 mph11.1 kmh 30.37 in1028.4 mb 0.00 in0.0 mm 0.00 in0.0 mm 0.00 in0.0 mm
04:57 AM 59.9°F15.5°C 55.9°F13.3°C 87% 2.0 mph NE3.2 kmh NE 6.0 mph9.7 kmh 30.38 in1028.8 mb 0.00 in0.0 mm 0.00 in0.0 mm 0.00 in0.0 mm
04:55 AM 59.9°F15.5°C 55.9°F13.3°C 87% 2.0 mph NE3.2 kmh NE 2.9 mph4.7 kmh 30.37 in1028.4 mb 0.00 in0.0 mm 0.00 in0.0 mm 0.00 in0.0 mm
04:53 AM 59.9°F15.5°C 55.9°F13.3°C 87% 2.0 mph SE3.2 kmh SE 4.9 mph7.9 kmh 30.37 in1028.4 mb 0.00 in0.0 mm 0.00 in0.0 mm 0.00 in0.0 mm
04:51 AM 59.9°F15.5°C 55.9°F13.3°C 87% 2.0 mph W3.2 kmh W 8.0 mph12.9 kmh 30.37 in1028.4 mb 0.00 in0.0 mm 0.00 in0.0 mm 0.00 in0.0 mm
04:49 AM 59.9°F15.5°C 55.9°F13.3°C 87% 2.0 mph E3.2 kmh E 4.9 mph7.9 kmh 30.37 in1028.4 mb 0.00 in0.0 mm 0.00 in0.0 mm 0.00 in0.0 mm
04:47 AM 59.9°F15.5°C 55.9°F13.3°C 87% 2.0 mph E3.2 kmh E 4.9 mph7.9 kmh 30.37 in1028.4 mb 0.00 in0.0 mm 0.00 in0.0 mm 0.00 in0.0 mm
04:45 AM 59.7°F15.4°C 55.8°F13.2°C 87% 2.0 mph SE3.2 kmh SE 6.9 mph11.1 kmh 30.37 in1028.4 mb 0.00 in0.0 mm 0.00 in0.0 mm 0.00 in0.0 mm
04:43 AM 59.7°F15.4°C 55.8°F13.2°C 87% 2.0 mph SE3.2 kmh SE 6.9 mph11.1 kmh 30.37 in1028.4 mb 0.00 in0.0 mm 0.00 in0.0 mm 0.00 in0.0 mm
04:41 AM 59.9°F15.5°C 55.9°F13.3°C 87% 2.0 mph SE3.2 kmh SE 8.1 mph13.0 kmh 30.37 in1028.4 mb 0.00 in0.0 mm 0.00 in0.0 mm 0.00 in0.0 mm
04:39 AM 59.9°F15.5°C 55.9°F13.3°C 87% 2.0 mph WSW3.2 kmh WSW 6.0 mph9.7 kmh 30.37 in1028.4 mb 0.00 in0.0 mm 0.00 in0.0 mm 0.00 in0.0 mm
04:37 AM 59.9°F15.5°C 55.9°F13.3°C 87% 2.0 mph ESE3.2 kmh ESE 4.9 mph7.9 kmh 30.37 in1028.4 mb 0.00 in0.0 mm 0.00 in0.0 mm 0.00 in0.0 mm
04:35 AM 59.9°F15.5°C 55.9°F13.3°C 87% 2.0 mph E3.2 kmh E 7.0 mph11.3 kmh 30.37 in1028.4 mb 0.00 in0.0 mm 0.00 in0.0 mm 0.00 in0.0 mm
04:33 AM 59.9°F15.5°C 55.9°F13.3°C 87% 2.0 mph NE3.2 kmh NE 4.9 mph7.9 kmh 30.37 in1028.4 mb 0.00 in0.0 mm 0.00 in0.0 mm 0.00 in0.0 mm
04:31 AM 59.9°F15.5°C 55.9°F13.3°C 87% 2.0 mph E3.2 kmh E 4.9 mph7.9 kmh 30.37 in1028.4 mb 0.00 in0.0 mm 0.00 in0.0 mm 0.00 in0.0 mm
04:29 AM 59.9°F15.5°C 55.9°F13.3°C 87% 2.0 mph NE3.2 kmh NE 4.9 mph7.9 kmh 30.37 in1028.4 mb 0.00 in0.0 mm 0.00 in0.0 mm 0.00 in0.0 mm
04:27 AM 60.1°F15.6°C 56.1°F13.4°C 87% 2.0 mph E3.2 kmh E 6.0 mph9.7 kmh 30.37 in1028.4 mb 0.00 in0.0 mm 0.00 in0.0 mm 0.00 in0.0 mm
04:25 AM 60.1°F15.6°C 56.1°F13.4°C 87% 2.0 mph NE3.2 kmh NE 6.9 mph11.1 kmh 30.37 in1028.4 mb 0.00 in0.0 mm 0.00 in0.0 mm 0.00 in0.0 mm
04:23 AM 60.1°F15.6°C 56.1°F13.4°C 87% 2.0 mph NE3.2 kmh NE 2.9 mph4.7 kmh 30.37 in1028.4 mb 0.00 in0.0 mm 0.00 in0.0 mm 0.00 in0.0 mm
04:21 AM 60.1°F15.6°C 56.1°F13.4°C 87% 2.0 mph ESE3.2 kmh ESE 4.0 mph6.4 kmh 30.37 in1028.4 mb 0.00 in0.0 mm 0.00 in0.0 mm 0.00 in0.0 mm
04:19 AM 60.1°F15.6°C 55.9°F13.3°C 86% 2.0 mph NE3.2 kmh NE 8.1 mph13.0 kmh 30.37 in1028.4 mb 0.00 in0.0 mm 0.00 in0.0 mm 0.00 in0.0 mm
04:17 AM 60.3°F15.7°C 56.1°F13.4°C 86% 2.0 mph E3.2 kmh E 7.0 mph11.3 kmh 30.37 in1028.4 mb 0.00 in0.0 mm 0.00 in0.0 mm 0.00 in0.0 mm
04:15 AM 60.3°F15.7°C 56.3°F13.5°C 87% 0.9 mph NE1.4 kmh NE 7.0 mph11.3 kmh 30.37 in1028.4 mb 0.00 in0.0 mm 0.00 in0.0 mm 0.00 in0.0 mm
04:13 AM 60.3°F15.7°C 56.3°F13.5°C 87% 0.9 mph NE1.4 kmh NE 4.9 mph7.9 kmh 30.37 in1028.4 mb 0.00 in0.0 mm 0.00 in0.0 mm 0.00 in0.0 mm
04:11 AM 60.3°F15.7°C 56.3°F13.5°C 87% 0.9 mph ESE1.4 kmh ESE 2.0 mph3.2 kmh 30.37 in1028.4 mb 0.00 in0.0 mm 0.00 in0.0 mm 0.00 in0.0 mm
04:09 AM 60.3°F15.7°C 56.3°F13.5°C 87% 0.9 mph E1.4 kmh E 2.0 mph3.2 kmh 30.37 in1028.4 mb 0.00 in0.0 mm 0.00 in0.0 mm 0.00 in0.0 mm
04:07 AM 60.3°F15.7°C 56.1°F13.4°C 86% 2.0 mph ESE3.2 kmh ESE 2.9 mph4.7 kmh 30.37 in1028.4 mb 0.00 in0.0 mm 0.00 in0.0 mm 0.00 in0.0 mm
04:05 AM 60.4°F15.8°C 56.5°F13.6°C 87% 2.0 mph ESE3.2 kmh ESE 4.9 mph7.9 kmh 30.37 in1028.4 mb 0.00 in0.0 mm 0.00 in0.0 mm 0.00 in0.0 mm
04:03 AM 60.4°F15.8°C 56.5°F13.6°C 87% 2.0 mph NE3.2 kmh NE 7.0 mph11.3 kmh 30.37 in1028.4 mb 0.00 in0.0 mm 0.00 in0.0 mm 0.00 in0.0 mm
04:01 AM 60.4°F15.8°C 56.5°F13.6°C 87% 0.9 mph SE1.4 kmh SE 4.0 mph6.4 kmh 30.37 in1028.4 mb 0.00 in0.0 mm 0.00 in0.0 mm 0.00 in0.0 mm
03:59 AM 60.4°F15.8°C 56.3°F13.5°C 86% 2.0 mph E3.2 kmh E 4.9 mph7.9 kmh 30.37 in1028.4 mb 0.00 in0.0 mm 0.00 in0.0 mm 0.00 in0.0 mm
03:57 AM 60.4°F15.8°C 56.3°F13.5°C 86% 2.0 mph E3.2 kmh E 4.0 mph6.4 kmh 30.37 in1028.4 mb 0.00 in0.0 mm 0.00 in0.0 mm 0.00 in0.0 mm
03:55 AM 60.4°F15.8°C 56.3°F13.5°C 86% 2.0 mph ESE3.2 kmh ESE 2.9 mph4.7 kmh 30.37 in1028.4 mb 0.00 in0.0 mm 0.00 in0.0 mm 0.00 in0.0 mm
03:53 AM 60.4°F15.8°C 56.5°F13.6°C 87% 2.0 mph SE3.2 kmh SE 4.0 mph6.4 kmh 30.37 in1028.4 mb 0.00 in0.0 mm 0.00 in0.0 mm 0.00 in0.0 mm
03:51 AM 60.4°F15.8°C 56.3°F13.5°C 86% 2.0 mph E3.2 kmh E 6.0 mph9.7 kmh 30.37 in1028.4 mb 0.00 in0.0 mm 0.00 in0.0 mm 0.00 in0.0 mm
03:49 AM 60.4°F15.8°C 56.3°F13.5°C 86% 2.0 mph ENE3.2 kmh ENE 6.0 mph9.7 kmh 30.37 in1028.4 mb 0.00 in0.0 mm 0.00 in0.0 mm 0.00 in0.0 mm
03:47 AM 60.4°F15.8°C 56.3°F13.5°C 86% 2.0 mph SW3.2 kmh SW 4.9 mph7.9 kmh 30.37 in1028.4 mb 0.00 in0.0 mm 0.00 in0.0 mm 0.00 in0.0 mm
03:45 AM 60.6°F15.9°C 56.5°F13.6°C 86% 2.0 mph ENE3.2 kmh ENE 9.0 mph14.5 kmh 30.37 in1028.4 mb 0.00 in0.0 mm 0.00 in0.0 mm 0.00 in0.0 mm
03:43 AM 60.6°F15.9°C 56.5°F13.6°C 86% 2.0 mph ESE3.2 kmh ESE 6.0 mph9.7 kmh 30.37 in1028.4 mb 0.00 in0.0 mm 0.00 in0.0 mm 0.00 in0.0 mm
03:41 AM 60.6°F15.9°C 56.5°F13.6°C 86% 2.0 mph ESE3.2 kmh ESE 7.0 mph11.3 kmh 30.37 in1028.4 mb 0.00 in0.0 mm 0.00 in0.0 mm 0.00 in0.0 mm
03:39 AM 60.6°F15.9°C 56.5°F13.6°C 86% 2.0 mph NE3.2 kmh NE 7.0 mph11.3 kmh 30.36 in1028.1 mb 0.00 in0.0 mm 0.00 in0.0 mm 0.00 in0.0 mm
03:37 AM 60.8°F16.0°C 56.7°F13.7°C 86% 2.0 mph SE3.2 kmh SE 4.9 mph7.9 kmh 30.37 in1028.4 mb 0.00 in0.0 mm 0.00 in0.0 mm 0.00 in0.0 mm
03:35 AM 60.8°F16.0°C 56.7°F13.7°C 86% 2.0 mph NE3.2 kmh NE 4.9 mph7.9 kmh 30.36 in1028.1 mb 0.00 in0.0 mm 0.00 in0.0 mm 0.00 in0.0 mm
03:33 AM 61.0°F16.1°C 56.8°F13.8°C 86% 2.0 mph ESE3.2 kmh ESE 4.9 mph7.9 kmh 30.37 in1028.4 mb 0.00 in0.0 mm 0.00 in0.0 mm 0.00 in0.0 mm
03:31 AM 61.0°F16.1°C 56.8°F13.8°C 86% 2.0 mph N3.2 kmh N 10.0 mph16.1 kmh 30.37 in1028.4 mb 0.00 in0.0 mm 0.00 in0.0 mm 0.00 in0.0 mm
03:29 AM 61.0°F16.1°C 56.8°F13.8°C 86% 2.0 mph NE3.2 kmh NE 10.1 mph16.3 kmh 30.36 in1028.1 mb 0.00 in0.0 mm 0.00 in0.0 mm 0.00 in0.0 mm
03:27 AM 61.2°F16.2°C 57.0°F13.9°C 86% 2.0 mph E3.2 kmh E 8.1 mph13.0 kmh 30.36 in1028.1 mb 0.00 in0.0 mm 0.00 in0.0 mm 0.00 in0.0 mm
03:25 AM 61.2°F16.2°C 56.7°F13.7°C 85% 0.9 mph E1.4 kmh E 6.0 mph9.7 kmh 30.36 in1028.1 mb 0.00 in0.0 mm 0.00 in0.0 mm 0.00 in0.0 mm
03:23 AM 61.2°F16.2°C 56.7°F13.7°C 85% 0.9 mph WNW1.4 kmh WNW 4.9 mph7.9 kmh 30.36 in1028.1 mb 0.00 in0.0 mm 0.00 in0.0 mm 0.00 in0.0 mm
03:21 AM 61.2°F16.2°C 57.0°F13.9°C 86% 0.9 mph E1.4 kmh E 4.0 mph6.4 kmh 30.37 in1028.4 mb 0.00 in0.0 mm 0.00 in0.0 mm 0.00 in0.0 mm
03:19 AM 61.3°F16.3°C 57.2°F14.0°C 86% 0.9 mph ESE1.4 kmh ESE 2.9 mph4.7 kmh 30.36 in1028.1 mb 0.00 in0.0 mm 0.00 in0.0 mm 0.00 in0.0 mm
03:17 AM 61.3°F16.3°C 57.2°F14.0°C 86% 0.9 mph E1.4 kmh E 5.0 mph8.0 kmh 30.36 in1028.1 mb 0.00 in0.0 mm 0.00 in0.0 mm 0.00 in0.0 mm
03:15 AM 61.3°F16.3°C 57.2°F14.0°C 86% 0.9 mph NNE1.4 kmh NNE 5.0 mph8.0 kmh 30.36 in1028.1 mb 0.00 in0.0 mm 0.00 in0.0 mm 0.00 in0.0 mm
03:13 AM 61.3°F16.3°C 57.2°F14.0°C 86% 2.0 mph NE3.2 kmh NE 4.0 mph6.4 kmh 30.36 in1028.1 mb 0.00 in0.0 mm 0.00 in0.0 mm 0.00 in0.0 mm
03:11 AM 61.3°F16.3°C 57.2°F14.0°C 86% 2.0 mph ESE3.2 kmh ESE 4.0 mph6.4 kmh 30.37 in1028.4 mb 0.00 in0.0 mm 0.00 in0.0 mm 0.00 in0.0 mm
03:09 AM 61.3°F16.3°C 57.2°F14.0°C 86% 2.0 mph ENE3.2 kmh ENE 4.0 mph6.4 kmh 30.36 in1028.1 mb 0.00 in0.0 mm 0.00 in0.0 mm 0.00 in0.0 mm
03:07 AM 61.3°F16.3°C 56.8°F13.8°C 85% 2.0 mph NE3.2 kmh NE 10.0 mph16.1 kmh 30.37 in1028.4 mb 0.00 in0.0 mm 0.00 in0.0 mm 0.00 in0.0 mm
03:05 AM 61.5°F16.4°C 57.0°F13.9°C 85% 2.0 mph ENE3.2 kmh ENE 10.1 mph16.3 kmh 30.37 in1028.4 mb 0.00 in0.0 mm 0.00 in0.0 mm 0.00 in0.0 mm
03:03 AM 61.5°F16.4°C 57.0°F13.9°C 85% 2.0 mph E3.2 kmh E 6.9 mph11.1 kmh 30.37 in1028.4 mb 0.00 in0.0 mm 0.00 in0.0 mm 0.00 in0.0 mm
03:01 AM 61.5°F16.4°C 57.0°F13.9°C 85% 2.0 mph E3.2 kmh E 4.9 mph7.9 kmh 30.37 in1028.4 mb 0.00 in0.0 mm 0.00 in0.0 mm 0.00 in0.0 mm
02:59 AM 61.5°F16.4°C 57.0°F13.9°C 85% 2.0 mph E3.2 kmh E 8.1 mph13.0 kmh 30.37 in1028.4 mb 0.00 in0.0 mm 0.00 in0.0 mm 0.00 in0.0 mm
02:57 AM 61.5°F16.4°C 57.0°F13.9°C 85% 2.0 mph E3.2 kmh E 6.0 mph9.7 kmh 30.37 in1028.4 mb 0.00 in0.0 mm 0.00 in0.0 mm 0.00 in0.0 mm
02:55 AM 61.7°F16.5°C 57.2°F14.0°C 85% 2.9 mph E4.7 kmh E 6.0 mph9.7 kmh 30.37 in1028.4 mb 0.00 in0.0 mm 0.00 in0.0 mm 0.00 in0.0 mm
02:53 AM 61.7°F16.5°C 57.2°F14.0°C 85% 2.9 mph NE4.7 kmh NE 4.9 mph7.9 kmh 30.36 in1028.1 mb 0.00 in0.0 mm 0.00 in0.0 mm 0.00 in0.0 mm
02:51 AM 61.7°F16.5°C 57.2°F14.0°C 85% 2.9 mph NE4.7 kmh NE 2.9 mph4.7 kmh 30.37 in1028.4 mb 0.00 in0.0 mm 0.00 in0.0 mm 0.00 in0.0 mm
02:49 AM 61.7°F16.5°C 57.2°F14.0°C 85% 2.9 mph ESE4.7 kmh ESE 10.0 mph16.1 kmh 30.36 in1028.1 mb 0.00 in0.0 mm 0.00 in0.0 mm 0.00 in0.0 mm
02:47 AM 61.9°F16.6°C 57.4°F14.1°C 85% 4.0 mph WNW6.4 kmh WNW 10.1 mph16.3 kmh 30.36 in1028.1 mb 0.00 in0.0 mm 0.00 in0.0 mm 0.00 in0.0 mm
02:45 AM 61.9°F16.6°C 57.4°F14.1°C 85% 2.9 mph E4.7 kmh E 6.9 mph11.1 kmh 30.36 in1028.1 mb 0.00 in0.0 mm 0.00 in0.0 mm 0.00 in0.0 mm
02:43 AM 61.9°F16.6°C 57.4°F14.1°C 85% 2.9 mph E4.7 kmh E 6.9 mph11.1 kmh 30.36 in1028.1 mb 0.00 in0.0 mm 0.00 in0.0 mm 0.00 in0.0 mm
02:41 AM 62.1°F16.7°C 57.6°F14.2°C 85% 2.9 mph ESE4.7 kmh ESE 8.1 mph13.0 kmh 30.37 in1028.4 mb 0.00 in0.0 mm 0.00 in0.0 mm 0.00 in0.0 mm
02:39 AM 62.1°F16.7°C 57.6°F14.2°C 85% 2.9 mph ENE4.7 kmh ENE 6.9 mph11.1 kmh 30.36 in1028.1 mb 0.00 in0.0 mm 0.00 in0.0 mm 0.00 in0.0 mm
02:37 AM 62.1°F16.7°C 57.6°F14.2°C 85% 2.0 mph ESE3.2 kmh ESE 6.9 mph11.1 kmh 30.36 in1028.1 mb 0.00 in0.0 mm 0.00 in0.0 mm 0.00 in0.0 mm
02:35 AM 62.2°F16.8°C 57.7°F14.3°C 85% 2.0 mph E3.2 kmh E 4.0 mph6.4 kmh 30.36 in1028.1 mb 0.00 in0.0 mm 0.00 in0.0 mm 0.00 in0.0 mm
02:33 AM 62.2°F16.8°C 57.4°F14.1°C 84% 2.0 mph E3.2 kmh E 8.1 mph13.0 kmh 30.36 in1028.1 mb 0.00 in0.0 mm 0.00 in0.0 mm 0.00 in0.0 mm
02:31 AM 62.2°F16.8°C 57.7°F14.3°C 85% 2.0 mph ESE3.2 kmh ESE 6.9 mph11.1 kmh 30.36 in1028.1 mb 0.00 in0.0 mm 0.00 in0.0 mm 0.00 in0.0 mm
02:29 AM 62.2°F16.8°C 57.7°F14.3°C 85% 2.0 mph E3.2 kmh E 4.0 mph6.4 kmh 30.36 in1028.1 mb 0.00 in0.0 mm 0.00 in0.0 mm 0.00 in0.0 mm
02:27 AM 62.2°F16.8°C 57.7°F14.3°C 85% 2.0 mph NE3.2 kmh NE 2.9 mph4.7 kmh 30.36 in1028.1 mb 0.00 in0.0 mm 0.00 in0.0 mm 0.00 in0.0 mm
02:25 AM 62.2°F16.8°C 57.4°F14.1°C 84% 2.0 mph ESE3.2 kmh ESE 6.0 mph9.7 kmh 30.36 in1028.1 mb 0.00 in0.0 mm 0.00 in0.0 mm 0.00 in0.0 mm
02:23 AM 62.4°F16.9°C 57.6°F14.2°C 84% 2.0 mph NE3.2 kmh NE 8.1 mph13.0 kmh 30.36 in1028.1 mb 0.00 in0.0 mm 0.00 in0.0 mm 0.00 in0.0 mm
02:21 AM 62.4°F16.9°C 57.6°F14.2°C 84% 2.0 mph NE3.2 kmh NE 7.0 mph11.3 kmh 30.36 in1028.1 mb 0.00 in0.0 mm 0.00 in0.0 mm 0.00 in0.0 mm
02:19 AM 62.4°F16.9°C 57.6°F14.2°C 84% 2.0 mph WSW3.2 kmh WSW 8.0 mph12.9 kmh 30.36 in1028.1 mb 0.00 in0.0 mm 0.00 in0.0 mm 0.00 in0.0 mm
02:17 AM 62.4°F16.9°C 57.6°F14.2°C 84% 2.0 mph ESE3.2 kmh ESE 4.9 mph7.9 kmh 30.36 in1028.1 mb 0.00 in0.0 mm 0.00 in0.0 mm 0.00 in0.0 mm
02:15 AM 62.6°F17.0°C 57.7°F14.3°C 84% 2.0 mph ESE3.2 kmh ESE 4.9 mph7.9 kmh 30.36 in1028.1 mb 0.00 in0.0 mm 0.00 in0.0 mm 0.00 in0.0 mm
02:13 AM 62.6°F17.0°C 57.7°F14.3°C 84% 2.9 mph E4.7 kmh E 4.0 mph6.4 kmh 30.36 in1028.1 mb 0.00 in0.0 mm 0.00 in0.0 mm 0.00 in0.0 mm
02:11 AM 62.6°F17.0°C 57.7°F14.3°C 84% 2.9 mph E4.7 kmh E 8.1 mph13.0 kmh 30.36 in1028.1 mb 0.00 in0.0 mm 0.00 in0.0 mm 0.00 in0.0 mm
02:09 AM 62.8°F17.1°C 57.9°F14.4°C 84% 2.9 mph NE4.7 kmh NE 8.1 mph13.0 kmh 30.36 in1028.1 mb 0.00 in0.0 mm 0.00 in0.0 mm 0.00 in0.0 mm
02:07 AM 62.8°F17.1°C 57.9°F14.4°C 84% 4.0 mph ESE6.4 kmh ESE 8.1 mph13.0 kmh 30.36 in1028.1 mb 0.00 in0.0 mm 0.00 in0.0 mm 0.00 in0.0 mm
02:05 AM 62.8°F17.1°C 57.9°F14.4°C 84% 2.9 mph NE4.7 kmh NE 8.1 mph13.0 kmh 30.36 in1028.1 mb 0.00 in0.0 mm 0.00 in0.0 mm 0.00 in0.0 mm
02:03 AM 63.0°F17.2°C 58.1°F14.5°C 84% 2.9 mph NE4.7 kmh NE 8.1 mph13.0 kmh 30.36 in1028.1 mb 0.00 in0.0 mm 0.00 in0.0 mm 0.00 in0.0 mm
02:01 AM 63.0°F17.2°C 58.1°F14.5°C 84% 2.9 mph ESE4.7 kmh ESE 9.0 mph14.5 kmh 30.36 in1028.1 mb 0.00 in0.0 mm 0.00 in0.0 mm 0.00 in0.0 mm
01:59 AM 63.1°F17.3°C 57.9°F14.4°C 83% 2.9 mph NE4.7 kmh NE 8.1 mph13.0 kmh 30.36 in1028.1 mb 0.00 in0.0 mm 0.00 in0.0 mm 0.00 in0.0 mm
01:57 AM 63.1°F17.3°C 57.9°F14.4°C 83% 2.0 mph NE3.2 kmh NE 8.1 mph13.0 kmh 30.36 in1028.1 mb 0.00 in0.0 mm 0.00 in0.0 mm 0.00 in0.0 mm
01:55 AM 63.1°F17.3°C 57.9°F14.4°C 83% 2.9 mph SE4.7 kmh SE 6.0 mph9.7 kmh 30.36 in1028.1 mb 0.00 in0.0 mm 0.00 in0.0 mm 0.00 in0.0 mm
01:53 AM 63.1°F17.3°C 57.9°F14.4°C 83% 2.0 mph NE3.2 kmh NE 4.9 mph7.9 kmh 30.36 in1028.1 mb 0.00 in0.0 mm 0.00 in0.0 mm 0.00 in0.0 mm
01:51 AM 63.1°F17.3°C 57.9°F14.4°C 83% 2.0 mph SE3.2 kmh SE 8.9 mph14.3 kmh 30.36 in1028.1 mb 0.00 in0.0 mm 0.00 in0.0 mm 0.00 in0.0 mm
01:49 AM 63.3°F17.4°C 58.1°F14.5°C 83% 2.9 mph NE4.7 kmh NE 4.9 mph7.9 kmh 30.36 in1028.1 mb 0.00 in0.0 mm 0.00 in0.0 mm 0.00 in0.0 mm
01:47 AM 63.3°F17.4°C 58.1°F14.5°C 83% 2.9 mph ENE4.7 kmh ENE 10.1 mph16.3 kmh 30.35 in1027.8 mb 0.00 in0.0 mm 0.00 in0.0 mm 0.00 in0.0 mm
01:45 AM 63.3°F17.4°C 58.1°F14.5°C 83% 2.9 mph SE4.7 kmh SE 8.1 mph13.0 kmh 30.35 in1027.8 mb 0.00 in0.0 mm 0.00 in0.0 mm 0.00 in0.0 mm
01:43 AM 63.5°F17.5°C 58.3°F14.6°C 83% 2.0 mph NE3.2 kmh NE 6.0 mph9.7 kmh 30.36 in1028.1 mb 0.00 in0.0 mm 0.00 in0.0 mm 0.00 in0.0 mm
01:41 AM 63.5°F17.5°C 58.3°F14.6°C 83% 2.0 mph ESE3.2 kmh ESE 6.9 mph11.1 kmh 30.35 in1027.8 mb 0.00 in0.0 mm 0.00 in0.0 mm 0.00 in0.0 mm
01:39 AM 63.7°F17.6°C 58.5°F14.7°C 83% 2.0 mph ENE3.2 kmh ENE 8.1 mph13.0 kmh 30.35 in1027.8 mb 0.00 in0.0 mm 0.00 in0.0 mm 0.00 in0.0 mm
01:37 AM 63.7°F17.6°C 58.5°F14.7°C 83% 2.0 mph NE3.2 kmh NE 8.9 mph14.3 kmh 30.35 in1027.8 mb 0.00 in0.0 mm 0.00 in0.0 mm 0.00 in0.0 mm
01:35 AM 63.7°F17.6°C 58.5°F14.7°C 83% 2.0 mph NE3.2 kmh NE 8.1 mph13.0 kmh 30.35 in1027.8 mb 0.00 in0.0 mm 0.00 in0.0 mm 0.00 in0.0 mm
01:33 AM 63.7°F17.6°C 58.5°F14.7°C 83% 2.0 mph ENE3.2 kmh ENE 4.0 mph6.4 kmh 30.35 in1027.8 mb 0.00 in0.0 mm 0.00 in0.0 mm 0.00 in0.0 mm
01:31 AM 63.7°F17.6°C 58.5°F14.7°C 83% 2.9 mph SE4.7 kmh SE 10.1 mph16.3 kmh 30.36 in1028.1 mb 0.00 in0.0 mm 0.00 in0.0 mm 0.00 in0.0 mm
01:29 AM 63.9°F17.7°C 58.3°F14.6°C 82% 2.0 mph NE3.2 kmh NE 9.0 mph14.5 kmh 30.35 in1027.8 mb 0.00 in0.0 mm 0.00 in0.0 mm 0.00 in0.0 mm
01:27 AM 63.9°F17.7°C 58.6°F14.8°C 83% 2.0 mph E3.2 kmh E 4.9 mph7.9 kmh 30.35 in1027.8 mb 0.00 in0.0 mm 0.00 in0.0 mm 0.00 in0.0 mm
01:25 AM 63.9°F17.7°C 58.6°F14.8°C 83% 2.9 mph E4.7 kmh E 4.9 mph7.9 kmh 30.35 in1027.8 mb 0.00 in0.0 mm 0.00 in0.0 mm 0.00 in0.0 mm
01:23 AM 64.0°F17.8°C 58.8°F14.9°C 83% 2.9 mph E4.7 kmh E 4.9 mph7.9 kmh 30.36 in1028.1 mb 0.00 in0.0 mm 0.00 in0.0 mm 0.00 in0.0 mm
01:21 AM 64.0°F17.8°C 58.8°F14.9°C 83% 2.9 mph ENE4.7 kmh ENE 6.9 mph11.1 kmh 30.35 in1027.8 mb 0.00 in0.0 mm 0.00 in0.0 mm 0.00 in0.0 mm
01:19 AM 64.2°F17.9°C 59.0°F15.0°C 83% 2.9 mph E4.7 kmh E 6.9 mph11.1 kmh 30.36 in1028.1 mb 0.00 in0.0 mm 0.00 in0.0 mm 0.00 in0.0 mm
01:17 AM 64.2°F17.9°C 59.0°F15.0°C 83% 2.9 mph NE4.7 kmh NE 10.1 mph16.3 kmh 30.35 in1027.8 mb 0.00 in0.0 mm 0.00 in0.0 mm 0.00 in0.0 mm
01:15 AM 64.2°F17.9°C 59.0°F15.0°C 83% 2.0 mph SSE3.2 kmh SSE 10.1 mph16.3 kmh 30.36 in1028.1 mb 0.00 in0.0 mm 0.00 in0.0 mm 0.00 in0.0 mm
01:13 AM 64.2°F17.9°C 59.0°F15.0°C 83% 2.0 mph E3.2 kmh E 4.0 mph6.4 kmh 30.36 in1028.1 mb 0.00 in0.0 mm 0.00 in0.0 mm 0.00 in0.0 mm
01:11 AM 64.2°F17.9°C 58.6°F14.8°C 82% 2.0 mph E3.2 kmh E 8.0 mph12.9 kmh 30.35 in1027.8 mb 0.00 in0.0 mm 0.00 in0.0 mm 0.00 in0.0 mm
01:09 AM 64.4°F18.0°C 58.8°F14.9°C 82% 2.0 mph ENE3.2 kmh ENE 8.0 mph12.9 kmh 30.36 in1028.1 mb 0.00 in0.0 mm 0.00 in0.0 mm 0.00 in0.0 mm
01:07 AM 64.6°F18.1°C 59.0°F15.0°C 82% 2.0 mph E3.2 kmh E 6.0 mph9.7 kmh 30.36 in1028.1 mb 0.00 in0.0 mm 0.00 in0.0 mm 0.00 in0.0 mm
01:05 AM 64.6°F18.1°C 59.0°F15.0°C 82% 2.0 mph ESE3.2 kmh ESE 6.0 mph9.7 kmh 30.36 in1028.1 mb 0.00 in0.0 mm 0.00 in0.0 mm 0.00 in0.0 mm
01:03 AM 64.6°F18.1°C 59.0°F15.0°C 82% 2.0 mph NE3.2 kmh NE 6.0 mph9.7 kmh 30.36 in1028.1 mb 0.00 in0.0 mm 0.00 in0.0 mm 0.00 in0.0 mm
01:01 AM 64.6°F18.1°C 59.0°F15.0°C 82% 2.9 mph S4.7 kmh S 8.1 mph13.0 kmh 30.35 in1027.8 mb 0.00 in0.0 mm 0.00 in0.0 mm 0.00 in0.0 mm
12:59 AM 64.8°F18.2°C 59.2°F15.1°C 82% 2.9 mph NE4.7 kmh NE 8.1 mph13.0 kmh 30.36 in1028.1 mb 0.00 in0.0 mm 0.00 in0.0 mm 0.00 in0.0 mm
12:57 AM 64.8°F18.2°C 59.2°F15.1°C 82% 2.9 mph WNW4.7 kmh WNW 4.9 mph7.9 kmh 30.36 in1028.1 mb 0.00 in0.0 mm 0.00 in0.0 mm 0.00 in0.0 mm
12:55 AM 64.8°F18.2°C 59.2°F15.1°C 82% 2.9 mph E4.7 kmh E 8.1 mph13.0 kmh 30.36 in1028.1 mb 0.00 in0.0 mm 0.00 in0.0 mm 0.00 in0.0 mm
12:53 AM 64.8°F18.2°C 59.2°F15.1°C 82% 2.9 mph ENE4.7 kmh ENE 4.9 mph7.9 kmh 30.36 in1028.1 mb 0.00 in0.0 mm 0.00 in0.0 mm 0.00 in0.0 mm
12:51 AM 64.9°F18.3°C 59.4°F15.2°C 82% 2.0 mph SE3.2 kmh SE 4.9 mph7.9 kmh 30.36 in1028.1 mb 0.00 in0.0 mm 0.00 in0.0 mm 0.00 in0.0 mm
12:49 AM 64.9°F18.3°C 59.0°F15.0°C 81% 2.0 mph SE3.2 kmh SE 4.9 mph7.9 kmh 30.36 in1028.1 mb 0.00 in0.0 mm 0.00 in0.0 mm 0.00 in0.0 mm
12:47 AM 65.1°F18.4°C 59.2°F15.1°C 81% 2.0 mph E3.2 kmh E 6.0 mph9.7 kmh 30.36 in1028.1 mb 0.00 in0.0 mm 0.00 in0.0 mm 0.00 in0.0 mm
12:45 AM 65.1°F18.4°C 59.2°F15.1°C 81% 0.9 mph NE1.4 kmh NE 7.0 mph11.3 kmh 30.36 in1028.1 mb 0.00 in0.0 mm 0.00 in0.0 mm 0.00 in0.0 mm
12:43 AM 65.3°F18.5°C 59.4°F15.2°C 81% 0.9 mph ESE1.4 kmh ESE 6.0 mph9.7 kmh 30.36 in1028.1 mb 0.00 in0.0 mm 0.00 in0.0 mm 0.00 in0.0 mm
12:41 AM 65.5°F18.6°C 59.5°F15.3°C 81% 2.0 mph N3.2 kmh N 4.0 mph6.4 kmh 30.36 in1028.1 mb 0.00 in0.0 mm 0.00 in0.0 mm 0.00 in0.0 mm
12:39 AM 65.5°F18.6°C 59.5°F15.3°C 81% 2.0 mph ESE3.2 kmh ESE 2.0 mph3.2 kmh 30.36 in1028.1 mb 0.00 in0.0 mm 0.00 in0.0 mm 0.00 in0.0 mm
12:37 AM 65.5°F18.6°C 59.5°F15.3°C 81% 2.0 mph E3.2 kmh E 4.0 mph6.4 kmh 30.36 in1028.1 mb 0.00 in0.0 mm 0.00 in0.0 mm 0.00 in0.0 mm
12:35 AM 65.5°F18.6°C 59.5°F15.3°C 81% 2.0 mph NE3.2 kmh NE 6.0 mph9.7 kmh 30.36 in1028.1 mb 0.00 in0.0 mm 0.00 in0.0 mm 0.00 in0.0 mm
12:33 AM 65.5°F18.6°C 59.5°F15.3°C 81% 2.0 mph SSE3.2 kmh SSE 8.0 mph12.9 kmh 30.36 in1028.1 mb 0.00 in0.0 mm 0.00 in0.0 mm 0.00 in0.0 mm
12:31 AM 65.5°F18.6°C 59.2°F15.1°C 80% 2.0 mph E3.2 kmh E 6.0 mph9.7 kmh 30.36 in1028.1 mb 0.00 in0.0 mm 0.00 in0.0 mm 0.00 in0.0 mm
12:29 AM 65.7°F18.7°C 59.4°F15.2°C 80% 2.9 mph ENE4.7 kmh ENE 6.0 mph9.7 kmh 30.36 in1028.1 mb 0.00 in0.0 mm 0.00 in0.0 mm 0.00 in0.0 mm
12:27 AM 65.7°F18.7°C 59.7°F15.4°C 81% 2.9 mph E4.7 kmh E 4.9 mph7.9 kmh 30.36 in1028.1 mb 0.00 in0.0 mm 0.00 in0.0 mm 0.00 in0.0 mm
12:25 AM 65.7°F18.7°C 59.7°F15.4°C 81% 2.9 mph ENE4.7 kmh ENE 4.0 mph6.4 kmh 30.36 in1028.1 mb 0.00 in0.0 mm 0.00 in0.0 mm 0.00 in0.0 mm
12:23 AM 65.7°F18.7°C 59.7°F15.4°C 81% 4.0 mph NE6.4 kmh NE 11.0 mph17.7 kmh 30.36 in1028.1 mb 0.00 in0.0 mm 0.00 in0.0 mm 0.00 in0.0 mm
12:21 AM 65.7°F18.7°C 59.4°F15.2°C 80% 2.9 mph E4.7 kmh E 11.0 mph17.7 kmh 30.36 in1028.1 mb 0.00 in0.0 mm 0.00 in0.0 mm 0.00 in0.0 mm
12:19 AM 65.8°F18.8°C 59.5°F15.3°C 80% 2.9 mph NE4.7 kmh NE 6.0 mph9.7 kmh 30.36 in1028.1 mb 0.00 in0.0 mm 0.00 in0.0 mm 0.00 in0.0 mm
12:17 AM 65.8°F18.8°C 59.5°F15.3°C 80% 2.9 mph NE4.7 kmh NE 6.0 mph9.7 kmh 30.36 in1028.1 mb 0.00 in0.0 mm 0.00 in0.0 mm 0.00 in0.0 mm
12:15 AM 65.8°F18.8°C 59.5°F15.3°C 80% 2.9 mph SW4.7 kmh SW 8.1 mph13.0 kmh 30.36 in1028.1 mb 0.00 in0.0 mm 0.00 in0.0 mm 0.00 in0.0 mm
12:13 AM 66.0°F18.9°C 59.7°F15.4°C 80% 2.9 mph NE4.7 kmh NE 6.9 mph11.1 kmh 30.36 in1028.1 mb 0.00 in0.0 mm 0.00 in0.0 mm 0.00 in0.0 mm
12:11 AM 66.0°F18.9°C 59.7°F15.4°C 80% 2.0 mph ENE3.2 kmh ENE 8.1 mph13.0 kmh 30.36 in1028.1 mb 0.00 in0.0 mm 0.00 in0.0 mm 0.00 in0.0 mm
12:09 AM 66.0°F18.9°C 59.7°F15.4°C 80% 2.0 mph NE3.2 kmh NE 6.9 mph11.1 kmh 30.36 in1028.1 mb 0.00 in0.0 mm 0.00 in0.0 mm 0.00 in0.0 mm
12:07 AM 66.0°F18.9°C 59.7°F15.4°C 80% 2.0 mph SE3.2 kmh SE 6.0 mph9.7 kmh 30.36 in1028.1 mb 0.00 in0.0 mm 0.00 in0.0 mm 0.00 in0.0 mm
12:05 AM 66.2°F19.0°C 59.9°F15.5°C 80% 2.0 mph ESE3.2 kmh ESE 8.0 mph12.9 kmh 30.36 in1028.1 mb 0.00 in0.0 mm 0.00 in0.0 mm 0.00 in0.0 mm
12:03 AM 66.4°F19.1°C 60.1°F15.6°C 80% 2.0 mph ENE3.2 kmh ENE 8.1 mph13.0 kmh 30.36 in1028.1 mb 0.00 in0.0 mm 0.00 in0.0 mm 0.00 in0.0 mm
12:01 AM 66.4°F19.1°C 60.1°F15.6°C 80% 2.9 mph ENE4.7 kmh ENE 2.9 mph4.7 kmh 30.36 in1028.1 mb 0.00 in0.0 mm 0.00 in0.0 mm 0.00 in0.0 mm